Portada
METAR-TAF:

METAR-TAF

Aeroports :

Amritsar, Índia

latitud: 31-38N, longitud: 074-52E, altitud: 229 m

Observació

L'informe es va fer fa 1 hora i 13 minuts, a les 10:00 UTC
Vent 5 kt del Oest/Sud-Oest
Temperatura 15°C
Humitat 100%
Pressió 1013 hPa
Visibilitat: 3000 m
Escasses núvols a una alçada de 3000 ft
Núvols disperses a una alçada de 9000 ft
boirina

METAR: VIAR 251000Z 24005KT 3000 BR FEW030 SCT090 15/15 Q1013 NOSIG

Hora: 16:43 (11:13 UTC)

Pronòstic

L'informe es va fer fa 3 hores i 13 minuts, a les 08:00 UTC
Pronòstic vàlid del 25 a les 09 UTC al 25 a les 18 UTC
Vent kt del Nord
Visibilitat: 1000 m
Escasses núvols a una alçada de 3000 ft
Núvols disperses a una alçada de 9000 ft
boirina
Evolucionant progressivament
l' 25 a les 14 UTC al 25 a les 16 UTC
Vent 4 kt del Oest
Visibilitat: 0600 m
Escasses núvols a una alçada de 10000 ft
Boira superficial

TAF: VIAR 250800Z 2509/2518 00000KT 1000 BR FEW030 SCT090 BECMG 2514/2516 28004KT 0600 MIFG FEW100

Observacions i pronòstics meteorològics de més de 4000 aeroports (METAR i TAF).

Les estacions disponibles són els punts grocs i vermells al mapa.

Posi el ratolí al punt desitjat per veure el nom de l'estació.

Feu clic per veure les observacions i els pronòstics meteorològics.

Per canviar el mapa: feu clic els botons verds amb una creu de color negre per apropar; al botó verd amb un guió per allunyar la imatge; o en les fletxes verdes per a mapes adjacents.


METAR-TAF: